Time;durP1;ratioP1;P1;durP2;ratioP2;P2;SDS_P1;SDS_P2;PMS_P1;PMS_P2;Temp;Humidity;BMP_temperature;BMP_pressure;BME280_temperature;BME280_humidity;BME280_pressure;Samples;Min_cycle;Max_cycle;Signal;HPM_P1;HPM_P2
2024/01/29 00:00:16;;;;;;;6.80;6.10;;;;;;;7.40;66.79;101265.09;5115193;28;20198;-71
2024/01/29 00:02:43;;;;;;;4.90;4.60;;;;;;;7.40;66.42;101262.44;5115275;28;20203;-71
2024/01/29 00:05:09;;;;;;;4.83;4.27;;;;;;;7.43;67.50;101270.94;5115490;28;20235;-71
2024/01/29 00:07:36;;;;;;;4.77;4.40;;;;;;;7.44;67.63;101272.63;5115415;28;20202;-72
2024/01/29 00:10:03;;;;;;;4.80;4.40;;;;;;;7.43;67.68;101275.41;5115171;28;20245;-71
2024/01/29 00:12:32;;;;;;;5.37;4.87;;;;;;;7.31;68.11;101279.91;5114965;28;20218;-72
2024/01/29 00:14:58;;;;;;;7.50;4.43;;;;;;;7.28;69.03;101279.34;5114709;28;20201;-72
2024/01/29 00:17:25;;;;;;;5.67;4.70;;;;;;;7.24;69.36;101285.88;5115130;28;20194;-72
2024/01/29 00:19:52;;;;;;;5.70;5.20;;;;;;;7.09;70.28;101306.50;5115037;28;20254;-72
2024/01/29 00:22:18;;;;;;;5.50;5.20;;;;;;;6.77;71.42;101302.25;5114706;28;20247;-72
2024/01/29 00:24:46;;;;;;;4.87;4.57;;;;;;;6.71;72.26;101300.09;5114746;28;20254;-71
2024/01/29 00:27:13;;;;;;;4.93;4.57;;;;;;;6.43;73.39;101303.34;5114657;28;20251;-72
2024/01/29 00:29:41;;;;;;;4.33;4.03;;;;;;;6.44;74.10;101305.00;5114744;28;20239;-71
2024/01/29 00:32:08;;;;;;;4.70;4.33;;;;;;;6.18;76.09;101303.66;5114602;28;20192;-72
2024/01/29 00:34:34;;;;;;;4.60;4.30;;;;;;;6.18;76.86;101314.22;5114732;28;20262;-72
2024/01/29 00:37:03;;;;;;;5.03;4.73;;;;;;;5.95;76.88;101312.59;5114761;28;20587;-72
2024/01/29 00:39:30;;;;;;;4.13;3.93;;;;;;;5.90;78.08;101312.09;5094190;28;20222;-71
2024/01/29 00:41:56;;;;;;;4.60;4.30;;;;;;;5.96;77.71;101309.00;5094333;28;20227;-71
2024/01/29 00:44:23;;;;;;;4.20;3.90;;;;;;;5.98;77.63;101312.34;5094159;28;20252;-71
2024/01/29 00:46:51;;;;;;;3.27;3.07;;;;;;;5.96;78.20;101319.53;5093948;28;20251;-71
2024/01/29 00:49:18;;;;;;;4.03;3.70;;;;;;;5.98;78.07;101314.97;5094162;28;20198;-72
2024/01/29 00:51:44;;;;;;;3.77;3.50;;;;;;;6.03;77.88;101312.81;5094025;28;20198;-71
2024/01/29 00:54:11;;;;;;;3.97;3.67;;;;;;;6.07;77.33;101322.16;5094124;28;20279;-72
2024/01/29 00:56:38;;;;;;;4.47;3.73;;;;;;;6.10;76.69;101321.91;5093816;28;20333;-72
2024/01/29 00:59:05;;;;;;;3.70;3.40;;;;;;;5.98;77.59;101328.16;5092864;28;20229;-71
2024/01/29 01:01:31;;;;;;;4.07;3.70;;;;;;;6.00;77.60;101321.78;5093877;28;20195;-71
2024/01/29 01:03:59;;;;;;;4.20;3.80;;;;;;;5.91;77.69;101325.19;5093577;28;20191;-71
2024/01/29 01:06:26;;;;;;;3.50;3.20;;;;;;;5.89;77.81;101327.13;5093972;28;20272;-71
2024/01/29 01:08:53;;;;;;;3.83;3.33;;;;;;;5.95;78.31;101313.41;5093941;28;20194;-71
2024/01/29 01:11:19;;;;;;;3.90;3.63;;;;;;;6.01;78.47;101317.38;5093935;28;20195;-69
2024/01/29 01:13:46;;;;;;;3.43;3.30;;;;;;;6.03;78.16;101312.81;5093211;28;20195;-70
2024/01/29 01:16:13;;;;;;;3.83;3.63;;;;;;;6.09;77.25;101314.97;5093066;28;20203;-69
2024/01/29 01:18:39;;;;;;;4.20;4.00;;;;;;;6.12;76.81;101305.00;5093516;28;20292;-70
2024/01/29 01:21:08;;;;;;;3.33;3.17;;;;;;;6.00;77.73;101297.25;5093710;28;20195;-69
2024/01/29 01:23:34;;;;;;;3.97;3.77;;;;;;;5.73;79.00;101292.34;5093505;28;20195;-70
2024/01/29 01:26:01;;;;;;;3.70;3.50;;;;;;;5.65;79.80;101292.09;5093237;28;20725;-70
2024/01/29 01:28:28;;;;;;;3.40;3.20;;;;;;;5.66;79.79;101299.88;5093413;28;20235;-71
2024/01/29 01:30:55;;;;;;;3.37;3.17;;;;;;;5.69;80.09;101302.25;5093306;28;20199;-70
2024/01/29 01:33:22;;;;;;;4.17;3.87;;;;;;;5.77;80.73;101301.69;5093491;28;20197;-70
2024/01/29 01:35:48;;;;;;;3.60;3.40;;;;;;;5.86;79.89;101294.84;5093311;28;20193;-71
2024/01/29 01:38:17;;;;;;;4.00;3.53;;;;;;;5.85;79.01;101295.81;5102912;28;20704;-73
2024/01/29 01:40:44;;;;;;;3.40;3.20;;;;;;;5.69;80.20;101281.16;5113463;28;20253;-72
2024/01/29 01:43:18;;;;;;;3.30;3.10;;;;;;;5.71;79.95;101279.25;5113254;28;20196;-71
2024/01/29 01:45:45;;;;;;;3.20;3.00;;;;;;;5.53;80.09;101287.78;5113027;28;20210;-71
2024/01/29 01:48:12;;;;;;;3.20;3.00;;;;;;;5.38;80.67;101276.66;5113431;28;20191;-71
2024/01/29 01:50:39;;;;;;;3.67;3.47;;;;;;;5.27;80.83;101270.53;5113433;28;20194;-71
2024/01/29 01:53:06;;;;;;;2.83;2.73;;;;;;;5.22;81.60;101276.16;5112982;28;20245;-71
2024/01/29 01:55:35;;;;;;;3.23;3.03;;;;;;;5.15;81.57;101274.94;5112936;28;20593;-70
2024/01/29 01:58:03;;;;;;;3.53;3.23;;;;;;;5.19;81.59;101272.94;5113202;28;20284;-70
2024/01/29 02:00:32;;;;;;;3.40;3.20;;;;;;;5.27;81.32;101281.91;5112918;28;20195;-70
2024/01/29 02:02:59;;;;;;;3.00;2.80;;;;;;;5.38;81.17;101284.56;5113284;28;20284;-70
2024/01/29 02:05:25;;;;;;;4.00;3.80;;;;;;;5.48;80.92;101288.13;5112717;28;20190;-71
2024/01/29 02:07:52;;;;;;;3.90;3.53;;;;;;;5.51;80.37;101290.53;5112805;28;20245;-71
2024/01/29 02:10:19;;;;;;;4.50;4.27;;;;;;;5.45;80.33;101283.13;5112708;28;20240;-71
2024/01/29 02:12:47;;;;;;;4.30;4.00;;;;;;;5.45;81.16;101275.22;5112802;28;20619;-71
2024/01/29 02:15:14;;;;;;;6.47;5.87;;;;;;;5.23;81.23;101271.75;5112742;28;20192;-70
2024/01/29 02:17:41;;;;;;;5.60;5.30;;;;;;;5.08;81.88;101272.91;5112989;28;20190;-71
2024/01/29 02:20:09;;;;;;;5.63;5.23;;;;;;;5.02;82.55;101276.84;5112238;28;20273;-71
2024/01/29 02:22:43;;;;;;;5.60;5.27;;;;;;;4.98;83.27;101278.03;5112628;28;20218;-72
2024/01/29 02:25:10;;;;;;;5.43;5.03;;;;;;;4.99;83.34;101277.06;5112818;28;20185;-72
2024/01/29 02:27:37;;;;;;;7.83;6.10;;;;;;;5.10;83.36;101276.25;5112442;28;20228;-72
2024/01/29 02:30:05;;;;;;;7.23;6.47;;;;;;;5.21;83.18;101285.03;5112419;28;20203;-71
2024/01/29 02:32:32;;;;;;;7.07;5.07;;;;;;;5.28;82.57;101280.94;5112493;28;20197;-71
2024/01/29 02:34:59;;;;;;;6.47;5.97;;;;;;;5.28;81.96;101280.94;5112253;28;20188;-72
2024/01/29 02:37:25;;;;;;;6.43;5.70;;;;;;;5.23;82.18;101282.28;5112404;28;20195;-71
2024/01/29 02:39:53;;;;;;;10.13;7.03;;;;;;;5.21;82.26;101285.03;5112580;28;20223;-72
2024/01/29 02:42:20;;;;;;;6.53;6.03;;;;;;;5.25;82.47;101286.47;5112965;28;20188;-72
2024/01/29 02:44:46;;;;;;;7.93;6.30;;;;;;;5.17;82.32;101290.63;5112111;28;20240;-71
2024/01/29 02:47:14;;;;;;;6.87;5.37;;;;;;;5.18;83.01;101279.97;5112237;28;20204;-70
2024/01/29 02:49:43;;;;;;;5.10;4.70;;;;;;;5.27;82.45;101295.06;5112479;28;20216;-71
2024/01/29 02:52:09;;;;;;;6.00;5.10;;;;;;;5.31;81.88;101296.50;5111715;28;20195;-71
2024/01/29 02:54:36;;;;;;;6.17;5.67;;;;;;;5.35;81.79;101300.59;5112408;28;20221;-72
2024/01/29 02:57:05;;;;;;;5.60;5.20;;;;;;;5.36;81.94;101302.25;5111836;28;20187;-71
2024/01/29 02:59:32;;;;;;;6.00;5.43;;;;;;;5.33;81.65;101299.03;5112095;28;20226;-71
2024/01/29 03:01:59;;;;;;;5.87;5.37;;;;;;;5.31;82.45;101309.69;5112267;28;20198;-71
2024/01/29 03:04:26;;;;;;;6.60;5.90;;;;;;;5.35;82.27;101308.50;5111848;28;20257;-71
2024/01/29 03:06:52;;;;;;;7.27;5.83;;;;;;;5.35;81.79;101300.59;5111851;28;20604;-71
2024/01/29 03:09:19;;;;;;;6.40;5.80;;;;;;;5.40;81.30;101301.06;5112376;28;20284;-71
2024/01/29 03:11:46;;;;;;;6.73;6.13;;;;;;;5.41;81.16;101308.03;5111766;28;20195;-71
2024/01/29 03:14:14;;;;;;;7.33;6.47;;;;;;;5.35;81.20;101300.59;5112152;28;20257;-70
2024/01/29 03:16:41;;;;;;;7.40;6.30;;;;;;;5.16;81.91;101300.31;5112092;28;20190;-71
2024/01/29 03:19:08;;;;;;;15.80;9.57;;;;;;;5.03;82.57;101301.41;5111941;28;20219;-71
2024/01/29 03:21:35;;;;;;;37.40;18.73;;;;;;;5.01;82.47;101305.94;5111902;28;20218;-71
2024/01/29 03:24:01;;;;;;;17.27;11.03;;;;;;;4.91;82.77;101300.50;5114882;28;20245;-71
2024/01/29 03:26:28;;;;;;;9.07;8.17;;;;;;;4.88;83.19;101300.78;5115966;28;20332;-72
2024/01/29 03:28:55;;;;;;;7.57;6.93;;;;;;;4.82;83.36;101303.84;5115927;28;20689;-72
2024/01/29 03:31:23;;;;;;;7.93;7.20;;;;;;;4.85;83.61;101310.66;5116125;28;20190;-72
2024/01/29 03:33:50;;;;;;;7.87;6.53;;;;;;;4.85;84.13;101314.16;5116235;28;20560;-72
2024/01/29 03:36:16;;;;;;;7.87;7.07;;;;;;;4.91;84.72;101311.03;5116086;28;20198;-71
2024/01/29 03:38:43;;;;;;;12.10;8.30;;;;;;;4.93;83.88;101313.56;5116101;28;20223;-72
2024/01/29 03:41:10;;;;;;;7.20;6.50;;;;;;;4.98;83.41;101314.91;5115593;28;20227;-72
2024/01/29 03:43:37;;;;;;;7.00;6.50;;;;;;;5.00;83.28;101310.38;5115415;28;20654;-72
2024/01/29 03:46:04;;;;;;;6.43;6.03;;;;;;;4.96;82.56;101311.56;5115362;28;20241;-72
2024/01/29 03:48:32;;;;;;;7.03;5.67;;;;;;;5.00;83.10;101310.38;5115671;28;20255;-71
2024/01/29 03:50:59;;;;;;;6.97;6.43;;;;;;;5.00;82.56;101315.63;5114827;28;20676;-71
2024/01/29 03:53:25;;;;;;;7.33;6.63;;;;;;;5.03;83.48;101312.75;5115715;28;20196;-72
2024/01/29 03:55:54;;;;;;;7.77;7.07;;;;;;;5.08;83.91;101315.06;5115399;28;20307;-72
2024/01/29 03:58:21;;;;;;;6.40;5.90;;;;;;;5.08;83.13;101326.44;5115414;28;20186;-70
2024/01/29 04:00:48;;;;;;;7.47;6.77;;;;;;;5.09;83.00;101325.47;5115162;28;20281;-70
2024/01/29 04:03:15;;;;;;;6.97;6.47;;;;;;;5.02;83.48;101324.25;5114898;28;20839;-70
2024/01/29 04:05:44;;;;;;;6.23;5.70;;;;;;;4.94;83.88;101337.16;5114880;28;20608;-70
2024/01/29 04:08:11;;;;;;;8.10;6.80;;;;;;;4.92;83.66;101341.72;5115577;28;20242;-70
2024/01/29 04:10:38;;;;;;;6.90;6.30;;;;;;;4.91;83.83;101344.44;5115341;28;20194;-69
2024/01/29 04:13:05;;;;;;;7.43;5.90;;;;;;;4.91;83.54;101345.28;5115071;28;20250;-70
2024/01/29 04:15:31;;;;;;;7.93;7.10;;;;;;;4.94;83.47;101345.06;5115073;28;20191;-70
2024/01/29 04:17:58;;;;;;;6.57;6.17;;;;;;;4.98;83.60;101348.28;5115163;28;20259;-70
2024/01/29 04:20:25;;;;;;;6.53;6.07;;;;;;;4.98;84.27;101345.66;5115186;28;20223;-70
2024/01/29 04:22:53;;;;;;;7.13;6.60;;;;;;;5.02;84.01;101347.09;5114859;28;20190;-70
2024/01/29 04:25:19;;;;;;;7.10;6.40;;;;;;;5.06;84.42;101341.50;5114915;28;20238;-70
2024/01/29 04:27:47;;;;;;;7.87;7.17;;;;;;;5.13;83.84;101336.59;5115013;28;20238;-70
2024/01/29 04:30:14;;;;;;;8.63;7.93;;;;;;;5.13;84.05;101340.09;5115054;28;20229;-70
2024/01/29 04:32:41;;;;;;;8.30;7.60;;;;;;;5.13;83.38;101345.34;5114875;28;20274;-70
2024/01/29 04:35:08;;;;;;;9.90;8.23;;;;;;;5.15;83.41;101347.88;5114401;28;20619;-70
2024/01/29 04:37:34;;;;;;;8.77;7.90;;;;;;;5.19;82.67;101352.78;5114665;28;20216;-71
2024/01/29 04:40:03;;;;;;;7.97;6.63;;;;;;;5.23;82.59;101356.84;5114375;28;20224;-71
2024/01/29 04:42:29;;;;;;;7.40;6.77;;;;;;;5.26;82.43;101355.78;5114578;28;20184;-70
2024/01/29 04:44:56;;;;;;;7.73;7.13;;;;;;;5.23;82.48;101356.84;5114867;28;20202;-70
2024/01/29 04:47:23;;;;;;;8.60;7.90;;;;;;;5.26;82.44;101367.16;5114141;28;20196;-72
2024/01/29 04:49:50;;;;;;;8.43;7.67;;;;;;;5.30;82.01;101367.75;5114139;28;20211;-71
2024/01/29 04:52:16;;;;;;;7.90;7.30;;;;;;;5.30;81.86;101363.34;5113430;28;20187;-70
2024/01/29 04:54:43;;;;;;;8.17;7.53;;;;;;;5.33;81.87;101372.81;5114232;28;20640;-73
2024/01/29 04:57:11;;;;;;;8.13;7.40;;;;;;;5.35;81.88;101379.63;5114385;28;20272;-73
2024/01/29 04:59:38;;;;;;;7.83;7.03;;;;;;;5.35;81.65;101376.16;5114442;28;20262;-66
2024/01/29 05:02:05;;;;;;;8.40;7.63;;;;;;;5.33;81.41;101393.88;5114060;28;20235;-66
2024/01/29 05:04:31;;;;;;;9.93;8.50;;;;;;;5.27;81.75;101391.72;5114214;28;20194;-66
2024/01/29 05:06:58;;;;;;;10.23;9.33;;;;;;;5.21;81.81;101395.66;5114101;28;20283;-67
2024/01/29 05:09:25;;;;;;;11.63;10.53;;;;;;;5.18;80.97;101401.16;5113645;28;20660;-67
2024/01/29 05:11:52;;;;;;;21.27;15.67;;;;;;;5.04;81.68;101403.16;5113010;28;20244;-67
2024/01/29 05:14:20;;;;;;;43.53;28.23;;;;;;;5.01;82.29;101403.38;5113953;28;20201;-67
2024/01/29 05:16:47;;;;;;;13.93;12.67;;;;;;;4.94;82.32;101395.09;5113977;28;20196;-67
2024/01/29 05:19:13;;;;;;;11.50;10.30;;;;;;;4.96;82.76;101394.97;5113222;28;20220;-66
2024/01/29 05:21:40;;;;;;;12.03;10.77;;;;;;;4.99;82.77;101400.84;5113067;28;20568;-68
2024/01/29 05:24:07;;;;;;;9.57;8.87;;;;;;;5.01;82.86;101409.47;5114079;28;20186;-67
2024/01/29 05:26:34;;;;;;;10.57;8.57;;;;;;;5.05;82.67;101410.94;5113127;28;20253;-67
2024/01/29 05:29:00;;;;;;;9.00;8.23;;;;;;;5.04;82.15;101414.53;5113602;28;20202;-67
2024/01/29 05:31:28;;;;;;;8.50;7.70;;;;;;;5.06;81.78;101411.75;5112603;28;20183;-68
2024/01/29 05:33:55;;;;;;;8.43;7.70;;;;;;;5.09;81.52;101417.66;5113131;28;20199;-67
2024/01/29 05:36:22;;;;;;;8.73;7.97;;;;;;;5.11;81.29;101421.00;5113432;28;20242;-68
2024/01/29 05:38:48;;;;;;;8.33;7.63;;;;;;;5.01;81.15;101420.00;5113212;28;20635;-67
2024/01/29 05:41:15;;;;;;;8.10;7.43;;;;;;;5.01;81.22;101430.56;5112579;28;20280;-68
2024/01/29 05:43:42;;;;;;;8.60;7.87;;;;;;;5.00;81.25;101439.41;5109965;28;20244;-67
2024/01/29 05:46:08;;;;;;;9.30;8.50;;;;;;;5.01;81.60;101429.69;5111885;28;20576;-68
2024/01/29 05:48:36;;;;;;;8.60;7.90;;;;;;;5.02;81.40;101426.97;5112104;28;20252;-68
2024/01/29 05:51:03;;;;;;;13.83;8.50;;;;;;;5.03;80.99;101423.34;5110608;28;20629;-66
2024/01/29 05:53:30;;;;;;;12.37;6.70;;;;;;;5.73;95.42;101430.25;5108284;28;20674;-71
2024/01/29 05:55:57;;;;;;;8.27;7.47;;;;;;;6.07;89.00;101438.22;5111720;28;20198;-65
2024/01/29 05:58:23;;;;;;;7.90;7.20;;;;;;;5.99;82.64;101452.00;5112021;28;20201;-65
2024/01/29 06:00:50;;;;;;;8.07;7.37;;;;;;;5.78;81.40;101432.53;5107807;27;20226;-64
2024/01/29 06:03:19;;;;;;;6.97;6.40;;;;;;;5.76;77.98;101463.47;5112686;28;20196;-66
2024/01/29 06:05:47;;;;;;;6.57;6.07;;;;;;;5.64;77.17;101467.88;5112498;28;20190;-65
2024/01/29 06:08:14;;;;;;;7.47;6.23;;;;;;;5.63;76.13;101465.34;5111663;28;20190;-65
2024/01/29 06:10:40;;;;;;;6.57;6.00;;;;;;;5.53;75.60;101467.00;5110925;28;20664;-65
2024/01/29 06:13:07;;;;;;;6.97;6.27;;;;;;;5.39;73.64;101477.72;5112541;28;20191;-64
2024/01/29 06:15:34;;;;;;;5.53;5.23;;;;;;;5.33;73.47;101475.56;5111404;28;20200;-64
2024/01/29 06:18:00;;;;;;;6.00;5.53;;;;;;;5.20;71.95;101477.44;5111579;28;20637;-65
2024/01/29 06:20:27;;;;;;;5.37;4.93;;;;;;;5.10;72.00;101476.41;5111954;28;20225;-64
2024/01/29 06:22:55;;;;;;;5.97;5.47;;;;;;;5.11;71.80;101480.75;5111723;28;20728;-66
2024/01/29 06:25:22;;;;;;;6.03;5.63;;;;;;;5.03;72.04;101486.56;5111828;28;20200;-65
2024/01/29 06:27:48;;;;;;;6.90;6.30;;;;;;;5.02;71.79;101481.41;5110105;28;20217;-64
2024/01/29 06:30:15;;;;;;;7.33;6.70;;;;;;;5.06;71.71;101486.34;5111936;28;20195;-65
2024/01/29 06:32:42;;;;;;;7.73;6.90;;;;;;;4.70;71.67;101489.00;5107433;28;20227;-65
2024/01/29 06:35:11;;;;;;;7.73;6.90;;;;;;;4.71;72.17;101490.69;5108340;28;20286;-67
2024/01/29 06:37:38;;;;;;;7.50;6.03;;;;;;;4.62;72.26;101495.78;5109099;28;20189;-65
2024/01/29 06:40:08;;;;;;;10.90;7.13;;;;;;;4.54;72.39;101490.22;5109629;28;20302;-66
2024/01/29 06:42:35;;;;;;;8.20;7.47;;;;;;;4.51;72.57;101491.28;5110407;28;20190;-66
2024/01/29 06:45:01;;;;;;;8.67;7.87;;;;;;;4.59;72.48;101496.84;5110611;28;20198;-66
2024/01/29 06:47:28;;;;;;;9.00;8.17;;;;;;;4.66;72.49;101490.19;5110700;28;20187;-67
2024/01/29 06:49:58;;;;;;;12.57;9.13;;;;;;;4.76;71.74;101493.84;5110178;28;20256;-66
2024/01/29 06:52:25;;;;;;;12.90;10.03;;;;;;;4.80;71.10;101505.00;5109375;28;20183;-66
2024/01/29 06:54:52;;;;;;;15.67;10.53;;;;;;;4.88;71.36;101497.38;5110377;28;20199;-67
2024/01/29 06:57:20;;;;;;;9.70;8.77;;;;;;;5.01;71.34;101499.03;5108254;28;20225;-67
2024/01/29 06:59:47;;;;;;;7.57;6.90;;;;;;;4.94;69.78;101510.09;5107758;28;20222;-66
2024/01/29 07:02:14;;;;;;;7.47;6.87;;;;;;;5.04;69.05;101514.63;5107167;28;20255;-66
2024/01/29 07:04:42;;;;;;;7.77;7.07;;;;;;;5.18;69.35;101511.78;5108391;28;20243;-67
2024/01/29 07:07:09;;;;;;;9.33;6.83;;;;;;;5.13;68.20;101513.94;5108688;28;20186;-64
2024/01/29 07:09:35;;;;;;;6.83;6.33;;;;;;;5.25;68.18;101517.44;5110047;28;20192;-67
2024/01/29 07:12:02;;;;;;;5.83;5.33;;;;;;;5.10;66.61;101524.69;5109877;28;20243;-66
2024/01/29 07:14:30;;;;;;;8.17;7.10;;;;;;;5.00;68.11;101520.19;5109726;28;20217;-66
2024/01/29 07:16:57;;;;;;;9.90;7.23;;;;;;;5.10;67.94;101519.41;5109953;28;20485;-67
2024/01/29 07:19:26;;;;;;;6.33;5.93;;;;;;;5.40;68.37;101511.88;5109998;28;20645;-67
2024/01/29 07:21:53;;;;;;;6.50;6.00;;;;;;;5.79;67.42;101514.19;5109732;28;20226;-66
2024/01/29 07:24:20;;;;;;;7.90;7.27;;;;;;;6.01;65.05;101533.66;5109398;28;20200;-65
2024/01/29 07:26:46;;;;;;;9.00;7.17;;;;;;;6.01;64.17;101517.84;5108850;28;20530;-67
2024/01/29 07:29:13;;;;;;;9.33;8.43;;;;;;;6.04;63.78;101520.25;5109836;28;20198;-67
2024/01/29 07:31:41;;;;;;;8.97;7.00;;;;;;;6.23;64.04;101517.84;5109721;28;20669;-67
2024/01/29 07:34:08;;;;;;;9.00;8.37;;;;;;;6.32;62.97;101522.44;5110844;28;20197;-67
2024/01/29 07:36:37;;;;;;;15.57;14.10;;;;;;;6.45;63.06;101513.41;5110432;28;20255;-67
2024/01/29 07:39:04;;;;;;;12.53;11.33;;;;;;;6.58;61.59;101515.94;5108894;28;20190;-68
2024/01/29 07:41:31;;;;;;;6.53;6.00;;;;;;;6.65;60.93;101517.97;5107981;28;20237;-67
2024/01/29 07:43:58;;;;;;;16.43;12.20;;;;;;;6.68;59.44;101524.81;5109469;28;20198;-67
2024/01/29 07:46:24;;;;;;;8.00;6.47;;;;;;;6.13;61.29;101522.19;5109748;28;20190;-66
2024/01/29 07:48:52;;;;;;;9.57;6.70;;;;;;;6.27;60.88;101514.88;5109692;28;20199;-67
2024/01/29 07:51:19;;;;;;;16.67;6.77;;;;;;;6.43;60.08;101503.94;5111331;28;20195;-67
2024/01/29 07:53:46;;;;;;;9.90;6.43;;;;;;;6.52;59.59;101508.50;5111397;28;20196;-67
2024/01/29 07:56:12;;;;;;;9.67;7.23;;;;;;;6.52;57.96;101519.06;5111335;28;20235;-66
2024/01/29 07:58:39;;;;;;;8.43;6.53;;;;;;;6.67;58.36;101523.13;5111531;28;20196;-66
2024/01/29 08:01:06;;;;;;;5.60;5.20;;;;;;;6.68;57.88;101530.09;5110977;28;20209;-66
2024/01/29 08:03:33;;;;;;;6.80;6.13;;;;;;;6.52;58.30;101519.06;5110904;28;20187;-67
2024/01/29 08:06:01;;;;;;;9.50;4.40;;;;;;;6.59;57.47;101525.53;5110891;28;20322;-66
2024/01/29 08:08:28;;;;;;;7.10;5.07;;;;;;;6.66;57.62;101516.19;5111472;28;20224;-66
2024/01/29 08:10:58;;;;;;;10.00;4.70;;;;;;;6.63;56.85;101524.34;5114665;28;20206;-68
2024/01/29 08:13:24;;;;;;;22.93;17.27;;;;;;;6.79;56.83;101522.16;5115190;28;20247;-67
2024/01/29 08:15:51;;;;;;;8.23;7.30;;;;;;;6.92;56.15;101523.72;5114580;28;20670;-68
2024/01/29 08:18:18;;;;;;;10.93;9.90;;;;;;;7.02;56.07;101523.81;5112500;28;20662;-68
2024/01/29 08:20:45;;;;;;;32.27;21.60;;;;;;;7.16;55.01;101542.03;5113167;28;20217;-67
2024/01/29 08:23:13;;;;;;;20.00;15.10;;;;;;;7.27;56.70;101542.00;5113353;28;20295;-67
2024/01/29 08:25:40;;;;;;;7.97;6.10;;;;;;;7.37;54.96;101549.06;5113127;28;20257;-65
2024/01/29 08:28:06;;;;;;;13.33;6.80;;;;;;;7.38;54.61;101556.00;5113571;28;20239;-66
2024/01/29 08:30:33;;;;;;;19.03;11.80;;;;;;;7.50;54.11;101562.09;5113347;28;20247;-67
2024/01/29 08:33:00;;;;;;;11.43;10.53;;;;;;;7.52;54.02;101558.34;5113279;28;20190;-67
2024/01/29 08:35:26;;;;;;;8.43;7.67;;;;;;;7.70;53.88;101554.19;5113731;28;20224;-66
2024/01/29 08:37:53;;;;;;;6.60;5.57;;;;;;;7.76;54.47;101561.63;5113681;28;20190;-67
2024/01/29 08:40:21;;;;;;;10.03;6.70;;;;;;;8.00;55.31;101559.56;5112819;28;20295;-67
2024/01/29 08:42:48;;;;;;;10.87;6.20;;;;;;;8.23;54.18;101565.59;5113269;28;20267;-67
2024/01/29 08:45:15;;;;;;;8.73;5.60;;;;;;;8.52;52.58;101574.53;5113748;28;20194;-65
2024/01/29 08:47:42;;;;;;;6.77;4.77;;;;;;;8.76;51.98;101569.75;5113198;28;20222;-67
2024/01/29 08:50:09;;;;;;;3.90;3.70;;;;;;;8.91;51.50;101581.69;5112366;28;20247;-67
2024/01/29 08:52:36;;;;;;;2.83;2.73;;;;;;;9.32;48.25;101576.19;5112599;28;20209;-67
2024/01/29 08:55:03;;;;;;;4.87;3.30;;;;;;;9.59;47.15;101579.84;5112624;28;20187;-67
2024/01/29 08:57:31;;;;;;;3.70;3.40;;;;;;;9.62;46.49;101573.41;5111766;28;20190;-68
2024/01/29 08:59:57;;;;;;;8.60;3.03;;;;;;;9.57;46.26;101568.56;5111980;28;20202;-67
2024/01/29 09:02:27;;;;;;;2.97;2.63;;;;;;;9.43;46.08;101557.47;5112950;28;20218;-67
2024/01/29 09:04:54;;;;;;;3.33;2.70;;;;;;;9.47;46.56;101569.50;5111773;28;20238;-68
2024/01/29 09:07:21;;;;;;;3.13;2.90;;;;;;;9.29;46.21;101579.13;5112446;28;20727;-68
2024/01/29 09:09:48;;;;;;;8.43;3.77;;;;;;;9.16;47.05;101565.28;5113223;28;20195;-67
2024/01/29 09:12:15;;;;;;;11.67;4.20;;;;;;;9.02;47.25;101563.84;5113039;28;20213;-67
2024/01/29 09:14:43;;;;;;;3.10;3.00;;;;;;;9.10;47.73;101565.81;5112660;28;20753;-66
2024/01/29 09:17:09;;;;;;;6.23;3.30;;;;;;;9.11;47.10;101567.50;5111906;28;20260;-66
2024/01/29 09:19:36;;;;;;;4.13;3.13;;;;;;;9.21;47.54;101568.34;5112198;28;20275;-67
2024/01/29 09:22:03;;;;;;;3.20;2.90;;;;;;;8.94;48.53;101557.56;5111518;28;20654;-66
2024/01/29 09:24:30;;;;;;;7.90;4.37;;;;;;;9.29;47.92;101560.56;5112606;28;20219;-65
2024/01/29 09:26:56;;;;;;;4.33;3.90;;;;;;;9.35;47.84;101562.66;5112541;28;20187;-67
2024/01/29 09:29:23;;;;;;;5.70;3.80;;;;;;;9.75;46.57;101558.06;5112846;28;20725;-67
2024/01/29 09:31:51;;;;;;;3.70;3.40;;;;;;;10.03;44.42;101557.19;5112617;28;20279;-69
2024/01/29 09:34:18;;;;;;;4.70;3.43;;;;;;;10.22;44.38;101555.34;5111793;28;20753;-68
2024/01/29 09:36:45;;;;;;;3.27;3.07;;;;;;;10.57;44.32;101547.56;5110521;28;20674;-67
2024/01/29 09:39:12;;;;;;;3.80;2.73;;;;;;;10.98;42.58;101548.91;5111610;28;20195;-67
2024/01/29 09:41:39;;;;;;;6.57;3.87;;;;;;;11.16;41.63;101539.16;5110859;28;20621;-66
2024/01/29 09:44:08;;;;;;;5.97;3.03;;;;;;;11.24;42.12;101536.59;5112824;28;20211;-66
2024/01/29 09:46:38;;;;;;;5.30;3.17;;;;;;;11.00;42.11;101533.66;5113130;28;20186;-64
2024/01/29 09:49:06;;;;;;;3.63;3.33;;;;;;;11.35;42.38;101532.88;5112597;28;20545;-65
2024/01/29 09:51:33;;;;;;;15.87;3.53;;;;;;;11.64;41.53;101526.34;5112453;28;20200;-65
2024/01/29 09:54:01;;;;;;;7.83;3.37;;;;;;;10.79;43.23;101522.44;5113001;28;20196;-66
2024/01/29 09:56:28;;;;;;;2.83;2.63;;;;;;;11.01;41.92;101519.34;5112611;28;20204;-67
2024/01/29 09:58:55;;;;;;;6.93;3.07;;;;;;;11.28;42.04;101516.66;5112674;28;20194;-67
2024/01/29 10:01:22;;;;;;;4.57;2.60;;;;;;;11.46;41.24;101522.81;5112437;28;20292;-67
2024/01/29 10:03:50;;;;;;;15.03;3.00;;;;;;;11.36;41.54;101511.44;5112789;28;20187;-66
2024/01/29 10:06:18;;;;;;;6.70;3.17;;;;;;;11.46;41.68;101520.16;5112292;28;20192;-67
2024/01/29 10:08:46;;;;;;;4.23;2.70;;;;;;;11.66;41.16;101510.22;5112044;28;20195;-65
2024/01/29 10:11:13;;;;;;;10.20;4.13;;;;;;;11.65;40.53;101520.03;5112382;28;20297;-67
2024/01/29 10:13:40;;;;;;;4.80;2.63;;;;;;;11.77;40.23;101507.31;5112840;28;20702;-65
2024/01/29 10:16:07;;;;;;;11.87;3.77;;;;;;;11.81;40.01;101504.19;5111715;28;20197;-67
2024/01/29 10:18:35;;;;;;;41.17;5.03;;;;;;;12.02;38.78;101507.34;5112525;28;20189;-66
2024/01/29 10:21:02;;;;;;;3.10;2.90;;;;;;;12.01;38.16;101510.97;5112444;28;20607;-66
2024/01/29 10:23:30;;;;;;;3.57;3.27;;;;;;;12.09;38.65;101505.72;5112095;28;20692;-65
2024/01/29 10:25:58;;;;;;;6.50;3.20;;;;;;;12.29;38.63;101504.50;5112045;28;20251;-66
2024/01/29 10:28:26;;;;;;;5.17;2.93;;;;;;;12.25;38.02;101500.47;5111763;28;20185;-66
2024/01/29 10:30:53;;;;;;;3.60;2.60;;;;;;;11.78;38.31;101499.19;5111533;28;20293;-67
2024/01/29 10:33:21;;;;;;;14.27;3.23;;;;;;;11.58;38.44;101496.78;5111430;27;20246;-66
2024/01/29 10:35:49;;;;;;;3.63;3.00;;;;;;;11.63;37.92;101494.56;5111582;28;20644;-66
2024/01/29 10:38:19;;;;;;;2.93;2.73;;;;;;;11.77;36.75;101492.19;5112116;28;20253;-67
2024/01/29 10:40:47;;;;;;;5.50;5.20;;;;;;;11.72;35.57;101494.44;5111065;28;20229;-66
2024/01/29 10:43:19;;;;;;;2.83;2.47;;;;;;;11.72;35.52;101494.44;5109554;28;20205;-67
2024/01/29 10:45:48;;;;;;;2.50;2.30;;;;;;;11.89;35.01;101490.09;5111396;28;20192;-67
2024/01/29 10:48:20;;;;;;;3.23;2.40;;;;;;;11.95;33.43;101458.34;5109909;28;20830;-68
2024/01/29 10:50:47;;;;;;;5.07;2.33;;;;;;;11.63;34.82;101479.41;5109782;28;20325;-67
2024/01/29 10:53:16;;;;;;;4.07;2.83;;;;;;;11.92;34.75;101477.28;5110990;28;20222;-67
2024/01/29 10:55:44;;;;;;;3.53;2.63;;;;;;;12.18;33.50;101475.47;5111835;28;20237;-68
2024/01/29 10:58:13;;;;;;;2.63;2.50;;;;;;;12.22;33.30;101471.50;5093160;28;20577;-67
2024/01/29 11:00:41;;;;;;;4.43;3.47;;;;;;;12.13;31.78;101474.28;5110472;28;20277;-69
2024/01/29 11:03:10;;;;;;;2.60;2.37;;;;;;;12.67;77.78;101452.53;5109691;28;20226;-73
2024/01/29 11:05:38;;;;;;;2.53;2.07;;;;;;;12.85;36.14;101469.25;5107744;28;20202;-67
2024/01/29 11:08:08;;;;;;;2.20;2.10;;;;;;;12.94;32.45;101463.78;5107775;27;20278;-70
2024/01/29 11:10:36;;;;;;;2.97;2.03;;;;;;;12.94;31.26;101449.63;5106594;28;20256;-68
2024/01/29 11:13:05;;;;;;;1.90;1.80;;;;;;;13.02;30.91;101461.16;5107310;28;20195;-69
2024/01/29 11:15:33;;;;;;;1.67;1.57;;;;;;;12.89;29.87;101459.91;5110072;28;20198;-69
2024/01/29 11:18:01;;;;;;;1.90;1.80;;;;;;;12.80;29.73;101450.25;5110237;28;20190;-67
2024/01/29 11:20:31;;;;;;;1.77;1.67;;;;;;;12.61;30.60;101440.69;5110047;28;20188;-68
2024/01/29 11:22:58;;;;;;;4.07;2.30;;;;;;;12.09;31.54;101435.63;5110921;28;20215;-68
2024/01/29 11:25:27;;;;;;;2.83;2.73;;;;;;;12.03;31.83;101426.44;5109263;28;20696;-69
2024/01/29 11:27:56;;;;;;;4.37;2.93;;;;;;;11.97;31.58;101431.56;5111074;28;20240;-71